Time;durP1;ratioP1;P1;durP2;ratioP2;P2;SDS_P1;SDS_P2;PMS_P1;PMS_P2;Temp;Humidity;BMP_temperature;BMP_pressure;BME280_temperature;BME280_humidity;BME280_pressure;Samples;Min_cycle;Max_cycle;Signal;HPM_P1;HPM_P2
2022/05/19 00:01:15;;;;;;;;;;;29.90;39.20;;;;;;5117008;28;1043;-43
2022/05/19 00:03:42;;;;;;;;;;;29.90;39.30;;;;;;5116711;28;981;-43
2022/05/19 00:06:09;;;;;;;;;;;29.90;39.20;;;;;;5116388;28;912;-42
2022/05/19 00:08:36;;;;;;;;;;;29.90;39.20;;;;;;5117577;28;929;-43
2022/05/19 00:11:05;;;;;;;;;;;29.90;39.20;;;;;;5117219;28;1012;-43
2022/05/19 00:13:32;;;;;;;;;;;29.90;39.10;;;;;;5117501;28;995;-44
2022/05/19 00:16:00;;;;;;;;;;;29.90;39.20;;;;;;5116778;28;1984;-43
2022/05/19 00:18:27;;;;;;;;;;;29.90;39.20;;;;;;5117184;28;949;-42
2022/05/19 00:20:54;;;;;;;;;;;29.90;40.40;;;;;;5117423;28;996;-43
2022/05/19 00:23:20;;;;;;;;;;;29.90;39.10;;;;;;5116682;28;949;-42
2022/05/19 00:25:47;;;;;;;;;;;29.90;39.10;;;;;;5116997;28;960;-43
2022/05/19 00:28:14;;;;;;;;;;;29.90;39.10;;;;;;5116088;28;1059;-43
2022/05/19 00:30:41;;;;;;;;;;;29.90;39.00;;;;;;5117121;28;996;-43
2022/05/19 00:33:09;;;;;;;;;;;29.90;39.10;;;;;;5121207;28;961;-43
2022/05/19 00:35:36;;;;;;;;;;;29.90;39.10;;;;;;5121212;28;1978;-42
2022/05/19 00:38:03;;;;;;;;;;;29.90;39.00;;;;;;5121819;28;1009;-43
2022/05/19 00:40:30;;;;;;;;;;;29.90;39.00;;;;;;5120998;28;1023;-43
2022/05/19 00:42:57;;;;;;;;;;;29.80;39.00;;;;;;5121514;28;1036;-42
2022/05/19 00:45:25;;;;;;;;;;;29.80;39.00;;;;;;5120298;28;1080;-45
2022/05/19 00:47:55;;;;;;;;;;;29.80;39.10;;;;;;5120127;28;976;-43
2022/05/19 00:50:24;;;;;;;;;;;29.80;39.10;;;;;;5119698;28;953;-44
2022/05/19 00:52:52;;;;;;;;;;;29.80;39.00;;;;;;5119815;28;1017;-42
2022/05/19 00:55:20;;;;;;;;;;;29.80;39.10;;;;;;5120126;28;2007;-44
2022/05/19 00:57:49;;;;;;;;;;;29.80;39.00;;;;;;5120818;28;989;-41
2022/05/19 01:00:17;;;;;;;;;;;29.80;39.10;;;;;;5119780;28;1106;-42
2022/05/19 01:02:46;;;;;;;;;;;29.80;39.30;;;;;;5120586;28;1039;-41
2022/05/19 01:05:13;;;;;;;;;;;29.80;39.20;;;;;;5120595;28;1000;-41
2022/05/19 01:07:46;;;;;;;;;;;29.80;39.00;;;;;;5120317;28;1011;-43
2022/05/19 01:10:13;;;;;;;;;;;29.80;39.10;;;;;;5120621;28;1116;-43
2022/05/19 01:12:40;;;;;;;;;;;29.80;39.00;;;;;;5120833;28;890;-42
2022/05/19 01:15:08;;;;;;;;;;;29.80;39.00;;;;;;5120743;28;932;-41
2022/05/19 01:17:35;;;;;;;;;;;29.80;39.20;;;;;;5120568;28;1913;-42
2022/05/19 01:20:07;;;;;;;;;;;29.80;39.50;;;;;;5120469;28;845;-42
2022/05/19 01:22:38;;;;;;;;;;;29.70;39.10;;;;;;5121384;28;1031;-42
2022/05/19 01:25:10;;;;;;;;;;;29.70;39.00;;;;;;5121249;28;941;-42
2022/05/19 01:27:39;;;;;;;;;;;29.70;39.00;;;;;;5121155;28;976;-43
2022/05/19 01:30:09;;;;;;;;;;;29.70;38.90;;;;;;5121429;28;937;-41
2022/05/19 01:32:35;;;;;;;;;;;29.70;38.90;;;;;;5121469;28;979;-40
2022/05/19 01:35:03;;;;;;;;;;;29.70;39.00;;;;;;5121668;28;892;-43
2022/05/19 01:37:29;;;;;;;;;;;29.70;39.00;;;;;;5120885;28;1984;-43
2022/05/19 01:39:59;;;;;;;;;;;29.70;39.00;;;;;;5120732;28;942;-43
2022/05/19 01:42:36;;;;;;;;;;;29.70;38.90;;;;;;5120261;28;1865;-43
2022/05/19 01:45:12;;;;;;;;;;;29.70;39.10;;;;;;5120612;28;1009;-44
2022/05/19 01:47:41;;;;;;;;;;;29.70;39.00;;;;;;5120080;28;941;-43
2022/05/19 01:50:11;;;;;;;;;;;29.70;38.90;;;;;;5120391;28;983;-42
2022/05/19 01:52:41;;;;;;;;;;;29.70;39.00;;;;;;5121038;28;986;-42
2022/05/19 01:55:10;;;;;;;;;;;29.70;39.00;;;;;;5121321;28;972;-44
2022/05/19 01:57:39;;;;;;;;;;;29.70;39.00;;;;;;5120992;28;1901;-43
2022/05/19 02:00:09;;;;;;;;;;;29.70;39.00;;;;;;5120277;28;1397;-43
2022/05/19 02:02:39;;;;;;;;;;;29.70;38.90;;;;;;5119801;28;984;-43
2022/05/19 02:05:11;;;;;;;;;;;29.70;39.10;;;;;;5120712;28;952;-44
2022/05/19 02:07:38;;;;;;;;;;;29.70;39.10;;;;;;5120465;28;975;-44
2022/05/19 02:10:06;;;;;;;;;;;29.70;38.90;;;;;;5120658;28;942;-42
2022/05/19 02:12:34;;;;;;;;;;;29.70;38.90;;;;;;5120467;28;1027;-44
2022/05/19 02:15:02;;;;;;;;;;;29.70;39.00;;;;;;5119759;28;888;-44
2022/05/19 02:17:31;;;;;;;;;;;29.70;39.00;;;;;;5120521;28;1988;-41
2022/05/19 02:19:59;;;;;;;;;;;29.70;38.90;;;;;;5120321;28;1008;-43
2022/05/19 02:22:30;;;;;;;;;;;29.70;38.90;;;;;;5120048;28;1288;-44
2022/05/19 02:25:00;;;;;;;;;;;29.70;38.90;;;;;;5119727;28;1004;-44
2022/05/19 02:27:32;;;;;;;;;;;29.70;38.80;;;;;;5120429;28;947;-43
2022/05/19 02:30:00;;;;;;;;;;;29.70;38.90;;;;;;5119719;28;997;-42
2022/05/19 02:32:27;;;;;;;;;;;29.70;38.90;;;;;;5120146;28;940;-43
2022/05/19 02:34:55;;;;;;;;;;;29.70;38.90;;;;;;5120190;28;933;-44
2022/05/19 02:37:22;;;;;;;;;;;29.70;38.90;;;;;;5120021;28;1901;-43
2022/05/19 02:39:49;;;;;;;;;;;29.70;39.00;;;;;;5120349;28;1103;-44
2022/05/19 02:42:16;;;;;;;;;;;29.60;39.10;;;;;;5119748;27;1143;-43
2022/05/19 02:44:42;;;;;;;;;;;29.60;38.90;;;;;;5119040;28;1020;-43
2022/05/19 02:47:09;;;;;;;;;;;29.60;38.90;;;;;;5119503;28;964;-43
2022/05/19 02:49:36;;;;;;;;;;;29.60;38.90;;;;;;5119471;28;965;-42
2022/05/19 02:52:04;;;;;;;;;;;29.70;38.90;;;;;;5119595;28;1019;-42
2022/05/19 02:54:31;;;;;;;;;;;29.60;38.90;;;;;;5118823;28;957;-43
2022/05/19 02:56:58;;;;;;;;;;;29.60;38.90;;;;;;5119067;28;1986;-44
2022/05/19 02:59:24;;;;;;;;;;;29.60;38.80;;;;;;5118348;28;1102;-43
2022/05/19 03:01:51;;;;;;;;;;;29.60;38.80;;;;;;5117999;28;999;-42
2022/05/19 03:04:18;;;;;;;;;;;29.60;38.90;;;;;;5118189;28;972;-44
2022/05/19 03:06:46;;;;;;;;;;;29.60;38.80;;;;;;5118694;28;991;-43
2022/05/19 03:09:14;;;;;;;;;;;29.60;38.80;;;;;;5119213;28;1127;-45
2022/05/19 03:11:41;;;;;;;;;;;29.60;38.80;;;;;;5119119;28;984;-45
2022/05/19 03:14:07;;;;;;;;;;;29.60;38.90;;;;;;5119277;28;1131;-45
2022/05/19 03:16:36;;;;;;;;;;;29.50;38.80;;;;;;5118280;28;1909;-45
2022/05/19 03:19:03;;;;;;;;;;;29.50;38.80;;;;;;5119188;28;1143;-44
2022/05/19 03:21:29;;;;;;;;;;;29.60;38.70;;;;;;5118893;28;1011;-45
2022/05/19 03:23:56;;;;;;;;;;;29.60;38.70;;;;;;5118866;28;1016;-44
2022/05/19 03:26:24;;;;;;;;;;;29.60;38.90;;;;;;5117682;28;948;-45
2022/05/19 03:28:51;;;;;;;;;;;29.60;38.70;;;;;;5117455;28;970;-45
2022/05/19 03:31:17;;;;;;;;;;;29.60;38.70;;;;;;5117523;28;995;-44
2022/05/19 03:33:44;;;;;;;;;;;29.60;38.70;;;;;;5116752;28;984;-44
2022/05/19 03:36:11;;;;;;;;;;;29.60;38.70;;;;;;5116514;28;1894;-44
2022/05/19 03:38:38;;;;;;;;;;;29.60;38.90;;;;;;5118428;28;976;-45
2022/05/19 03:41:05;;;;;;;;;;;29.60;38.60;;;;;;5117959;28;892;-45
2022/05/19 03:43:33;;;;;;;;;;;29.60;38.60;;;;;;5118030;28;896;-44
2022/05/19 03:46:01;;;;;;;;;;;29.60;38.70;;;;;;5116341;28;1007;-45
2022/05/19 03:48:31;;;;;;;;;;;29.60;38.60;;;;;;5116284;28;1021;-44
2022/05/19 03:50:58;;;;;;;;;;;29.60;38.80;;;;;;5116708;28;1032;-45
2022/05/19 03:53:25;;;;;;;;;;;29.50;38.70;;;;;;5117053;28;1009;-45
2022/05/19 03:55:54;;;;;;;;;;;29.60;38.70;;;;;;5116724;28;1028;-44
2022/05/19 03:58:21;;;;;;;;;;;29.60;38.70;;;;;;5116355;28;1976;-45
2022/05/19 04:00:49;;;;;;;;;;;29.50;38.50;;;;;;5116923;28;1026;-44
2022/05/19 04:03:16;;;;;;;;;;;29.50;38.70;;;;;;5116190;28;996;-45
2022/05/19 04:05:42;;;;;;;;;;;29.60;38.70;;;;;;5115622;28;1002;-44
2022/05/19 04:08:09;;;;;;;;;;;29.60;38.70;;;;;;5116182;28;1006;-44
2022/05/19 04:10:36;;;;;;;;;;;29.60;38.50;;;;;;5115299;28;924;-45
2022/05/19 04:13:03;;;;;;;;;;;29.50;38.50;;;;;;5116389;28;952;-45
2022/05/19 04:15:30;;;;;;;;;;;29.60;38.50;;;;;;5116008;28;976;-45
2022/05/19 04:17:58;;;;;;;;;;;29.60;39.70;;;;;;5115420;28;1909;-44
2022/05/19 04:20:29;;;;;;;;;;;29.60;38.50;;;;;;5116348;28;995;-45
2022/05/19 04:22:56;;;;;;;;;;;29.60;38.60;;;;;;5116588;28;944;-44
2022/05/19 04:25:23;;;;;;;;;;;29.50;38.50;;;;;;5113500;28;949;-42
2022/05/19 04:27:50;;;;;;;;;;;29.50;38.50;;;;;;5116456;28;1786;-42
2022/05/19 04:30:17;;;;;;;;;;;29.50;38.60;;;;;;5117554;28;1000;-42
2022/05/19 04:32:44;;;;;;;;;;;29.50;38.60;;;;;;5117787;28;998;-42
2022/05/19 04:35:12;;;;;;;;;;;29.50;38.60;;;;;;5117588;28;973;-42
2022/05/19 04:37:39;;;;;;;;;;;29.50;38.60;;;;;;5116021;28;1988;-40
2022/05/19 04:40:06;;;;;;;;;;;29.50;38.70;;;;;;5116415;28;1009;-43
2022/05/19 04:42:33;;;;;;;;;;;29.50;38.60;;;;;;5116299;28;1012;-43
2022/05/19 04:45:00;;;;;;;;;;;29.50;38.70;;;;;;5117371;28;873;-43
2022/05/19 04:47:28;;;;;;;;;;;29.40;38.60;;;;;;5116238;28;980;-40
2022/05/19 04:49:55;;;;;;;;;;;29.50;38.80;;;;;;5115173;28;909;-42
2022/05/19 04:52:23;;;;;;;;;;;29.50;38.60;;;;;;5115893;28;933;-41
2022/05/19 04:54:50;;;;;;;;;;;29.50;38.70;;;;;;5116257;28;999;-41
2022/05/19 04:57:17;;;;;;;;;;;29.50;38.70;;;;;;5115511;28;1906;-43
2022/05/19 04:59:44;;;;;;;;;;;29.50;38.70;;;;;;5114852;28;1137;-42
2022/05/19 05:02:11;;;;;;;;;;;29.50;39.00;;;;;;5114078;28;989;-42
2022/05/19 05:04:38;;;;;;;;;;;29.50;38.60;;;;;;5113616;28;1330;-41
2022/05/19 05:07:05;;;;;;;;;;;29.50;38.70;;;;;;5114787;28;883;-39
2022/05/19 05:09:33;;;;;;;;;;;29.50;38.70;;;;;;5113326;28;972;-39
2022/05/19 05:12:00;;;;;;;;;;;29.50;38.80;;;;;;5114393;28;1315;-42
2022/05/19 05:14:27;;;;;;;;;;;29.50;38.90;;;;;;5113438;28;1004;-42
2022/05/19 05:16:54;;;;;;;;;;;29.50;38.80;;;;;;5113124;28;1913;-41
2022/05/19 05:19:22;;;;;;;;;;;29.50;38.80;;;;;;5115942;28;1887;-42
2022/05/19 05:21:49;;;;;;;;;;;29.50;38.80;;;;;;5114874;28;941;-40
2022/05/19 05:24:17;;;;;;;;;;;29.50;38.80;;;;;;5114911;28;983;-39
2022/05/19 05:26:45;;;;;;;;;;;29.40;38.80;;;;;;5115488;28;1036;-40
2022/05/19 05:29:12;;;;;;;;;;;29.40;38.80;;;;;;5115673;28;1146;-42
2022/05/19 05:31:39;;;;;;;;;;;29.40;39.00;;;;;;5115067;28;932;-42
2022/05/19 05:34:06;;;;;;;;;;;29.50;39.00;;;;;;5115887;28;1118;-41
2022/05/19 05:36:33;;;;;;;;;;;29.40;39.00;;;;;;5115637;28;679;-42
2022/05/19 05:39:00;;;;;;;;;;;29.50;39.10;;;;;;5116048;28;1905;-44
2022/05/19 05:41:26;;;;;;;;;;;29.40;39.20;;;;;;5116234;28;1003;-44
2022/05/19 05:43:54;;;;;;;;;;;29.40;39.00;;;;;;5116317;28;1008;-44
2022/05/19 05:46:21;;;;;;;;;;;29.40;39.10;;;;;;5116664;28;977;-43
2022/05/19 05:48:48;;;;;;;;;;;29.40;39.20;;;;;;5111269;28;1732;-44
2022/05/19 05:51:16;;;;;;;;;;;29.40;39.20;;;;;;5098198;28;961;-43
2022/05/19 05:53:44;;;;;;;;;;;29.50;39.30;;;;;;5096880;28;1039;-44
2022/05/19 05:56:12;;;;;;;;;;;29.50;39.00;;;;;;5098598;28;825;-44
2022/05/19 05:58:38;;;;;;;;;;;29.70;38.90;;;;;;5098380;28;2003;-44
2022/05/19 06:01:08;;;;;;;;;;;29.70;38.70;;;;;;5096950;28;996;-45
2022/05/19 06:03:35;;;;;;;;;;;29.70;38.90;;;;;;5097597;28;996;-44
2022/05/19 06:06:02;;;;;;;;;;;29.60;39.10;;;;;;5096823;28;865;-46
2022/05/19 06:08:28;;;;;;;;;;;29.50;39.40;;;;;;5097806;28;987;-44
2022/05/19 06:10:55;;;;;;;;;;;29.50;39.60;;;;;;5096409;28;952;-46
2022/05/19 06:13:24;;;;;;;;;;;29.60;39.60;;;;;;5096370;28;956;-46
2022/05/19 06:15:50;;;;;;;;;;;29.50;39.50;;;;;;5095339;28;1028;-44
2022/05/19 06:18:19;;;;;;;;;;;29.60;39.60;;;;;;5095315;28;1910;-47
2022/05/19 06:20:46;;;;;;;;;;;29.60;39.60;;;;;;5096736;28;999;-47
2022/05/19 06:23:12;;;;;;;;;;;29.60;39.30;;;;;;5095290;28;1396;-48
2022/05/19 06:25:39;;;;;;;;;;;29.50;39.60;;;;;;5094068;28;1115;-48
2022/05/19 06:28:06;;;;;;;;;;;29.40;40.70;;;;;;5095495;28;1075;-46
2022/05/19 06:30:33;;;;;;;;;;;29.50;39.70;;;;;;5095100;28;961;-47
2022/05/19 06:33:00;;;;;;;;;;;29.50;39.70;;;;;;5096610;28;1248;-46
2022/05/19 06:35:29;;;;;;;;;;;29.50;40.40;;;;;;5096898;28;952;-45
2022/05/19 06:37:56;;;;;;;;;;;29.50;40.00;;;;;;5097242;28;1910;-45
2022/05/19 06:40:25;;;;;;;;;;;29.50;40.00;;;;;;5095904;28;1809;-45
2022/05/19 06:42:52;;;;;;;;;;;29.40;40.00;;;;;;5097730;28;957;-44
2022/05/19 06:45:20;;;;;;;;;;;29.40;40.00;;;;;;5095623;28;1038;-45
2022/05/19 06:47:47;;;;;;;;;;;29.50;40.10;;;;;;5094312;28;1024;-45
2022/05/19 06:50:16;;;;;;;;;;;29.50;40.30;;;;;;5094946;28;921;-45
2022/05/19 06:52:45;;;;;;;;;;;29.50;40.20;;;;;;5094595;28;998;-45
2022/05/19 06:55:13;;;;;;;;;;;29.50;40.10;;;;;;5094928;28;949;-45
2022/05/19 06:57:40;;;;;;;;;;;29.50;40.20;;;;;;5094329;28;1910;-45
2022/05/19 07:00:08;;;;;;;;;;;29.50;40.10;;;;;;5094634;28;1076;-45
2022/05/19 07:02:35;;;;;;;;;;;29.50;40.20;;;;;;5093661;28;1098;-45
2022/05/19 07:05:01;;;;;;;;;;;29.60;40.30;;;;;;5094973;28;984;-45
2022/05/19 07:07:28;;;;;;;;;;;29.50;40.20;;;;;;5093308;28;973;-45
2022/05/19 07:09:56;;;;;;;;;;;29.60;40.20;;;;;;5094786;28;992;-45
2022/05/19 07:12:24;;;;;;;;;;;29.60;40.20;;;;;;5091333;28;981;-45
2022/05/19 07:14:50;;;;;;;;;;;29.60;40.30;;;;;;5095254;28;806;-44
2022/05/19 07:17:17;;;;;;;;;;;29.50;40.10;;;;;;5095553;28;877;-45
2022/05/19 07:22:29;;;;;;;;;;;29.60;40.30;;;;;;5093678;28;900;-44
2022/05/19 07:25:00;;;;;;;;;;;29.60;40.20;;;;;;5093975;28;988;-44
2022/05/19 07:27:26;;;;;;;;;;;29.60;40.20;;;;;;5093895;28;1257;-45
2022/05/19 07:29:53;;;;;;;;;;;29.60;40.20;;;;;;5093720;28;985;-45
2022/05/19 07:32:20;;;;;;;;;;;29.60;40.30;;;;;;5094181;28;1022;-45
2022/05/19 07:34:47;;;;;;;;;;;29.60;40.20;;;;;;5093348;28;922;-44
2022/05/19 07:37:14;;;;;;;;;;;29.60;40.30;;;;;;5093303;28;964;-44
2022/05/19 07:39:41;;;;;;;;;;;29.60;40.30;;;;;;5093865;28;1906;-45
2022/05/19 07:42:09;;;;;;;;;;;29.60;40.30;;;;;;5094057;28;1004;-44
2022/05/19 07:44:36;;;;;;;;;;;29.60;40.30;;;;;;5093869;28;1008;-44
2022/05/19 07:47:03;;;;;;;;;;;29.60;40.40;;;;;;5094525;28;945;-43
2022/05/19 07:49:29;;;;;;;;;;;29.60;40.40;;;;;;5094496;28;1043;-44
2022/05/19 07:51:56;;;;;;;;;;;29.60;40.30;;;;;;5095041;28;992;-45
2022/05/19 07:54:24;;;;;;;;;;;29.60;40.30;;;;;;5095299;28;1024;-44
2022/05/19 07:56:52;;;;;;;;;;;29.60;40.40;;;;;;5095938;28;1406;-45
2022/05/19 07:59:21;;;;;;;;;;;29.70;40.40;;;;;;5114865;28;1995;-44
2022/05/19 08:01:48;;;;;;;;;;;29.60;40.20;;;;;;5115604;28;856;-45
2022/05/19 08:04:15;;;;;;;;;;;29.60;40.20;;;;;;5115887;28;1099;-44
2022/05/19 08:06:42;;;;;;;;;;;29.70;40.30;;;;;;5114485;28;1011;-44
2022/05/19 08:11:50;;;;;;;;;;;29.70;40.30;;;;;;5113068;28;1063;-43
2022/05/19 08:17:03;;;;;;;;;;;29.70;40.20;;;;;;5114528;28;1039;-44
2022/05/19 08:19:30;;;;;;;;;;;29.70;40.20;;;;;;5114099;28;1906;-45
2022/05/19 08:21:57;;;;;;;;;;;29.70;40.20;;;;;;5114031;28;911;-45
2022/05/19 08:24:26;;;;;;;;;;;29.70;40.20;;;;;;5114146;28;1084;-45
2022/05/19 08:26:53;;;;;;;;;;;29.70;40.30;;;;;;5114426;28;997;-44
2022/05/19 08:29:19;;;;;;;;;;;29.70;40.20;;;;;;5113744;28;1000;-44
2022/05/19 08:31:47;;;;;;;;;;;29.70;40.30;;;;;;5114299;28;971;-44
2022/05/19 08:34:15;;;;;;;;;;;29.70;40.30;;;;;;5115010;28;1106;-43
2022/05/19 08:36:43;;;;;;;;;;;29.70;40.30;;;;;;5114709;28;1042;-45
2022/05/19 08:39:10;;;;;;;;;;;29.70;40.30;;;;;;5113946;28;1934;-45
2022/05/19 08:41:39;;;;;;;;;;;29.70;40.30;;;;;;5113525;28;955;-45
2022/05/19 08:44:08;;;;;;;;;;;29.70;40.30;;;;;;5114617;28;1036;-44
2022/05/19 08:46:37;;;;;;;;;;;29.70;40.30;;;;;;5115008;28;986;-45
2022/05/19 08:49:08;;;;;;;;;;;29.70;40.30;;;;;;5114364;28;1096;-44
2022/05/19 08:51:39;;;;;;;;;;;29.70;40.30;;;;;;5114336;28;944;-45
2022/05/19 08:54:07;;;;;;;;;;;29.70;40.30;;;;;;5117220;28;1023;-44
2022/05/19 08:56:36;;;;;;;;;;;29.70;40.30;;;;;;5118146;28;876;-45
2022/05/19 08:59:07;;;;;;;;;;;29.70;40.40;;;;;;5117646;28;1985;-44
2022/05/19 09:01:40;;;;;;;;;;;29.70;40.40;;;;;;5117533;28;928;-44
2022/05/19 09:04:15;;;;;;;;;;;29.70;40.40;;;;;;5117833;28;996;-44
2022/05/19 09:09:42;;;;;;;;;;;29.70;40.40;;;;;;5116889;28;709;-45
2022/05/19 09:12:10;;;;;;;;;;;29.70;40.40;;;;;;5116708;28;1252;-45
2022/05/19 09:14:37;;;;;;;;;;;29.80;40.50;;;;;;5115984;28;1130;-44
2022/05/19 09:17:05;;;;;;;;;;;29.70;40.30;;;;;;5116283;28;988;-44
2022/05/19 09:19:34;;;;;;;;;;;29.80;40.40;;;;;;5117126;28;1905;-45
2022/05/19 09:22:04;;;;;;;;;;;29.80;40.50;;;;;;5118093;28;860;-43
2022/05/19 09:24:31;;;;;;;;;;;29.80;40.40;;;;;;5117473;28;1047;-45
2022/05/19 09:26:59;;;;;;;;;;;29.80;40.40;;;;;;5116529;28;993;-45
2022/05/19 09:29:29;;;;;;;;;;;29.80;40.40;;;;;;5116239;28;988;-44
2022/05/19 09:31:57;;;;;;;;;;;29.80;40.30;;;;;;5116620;28;999;-42
2022/05/19 09:34:25;;;;;;;;;;;29.80;40.40;;;;;;5118391;28;1004;-45
2022/05/19 09:37:01;;;;;;;;;;;29.80;40.30;;;;;;5118664;28;972;-45
2022/05/19 09:39:33;;;;;;;;;;;29.80;40.30;;;;;;5118073;28;1984;-44
2022/05/19 09:42:02;;;;;;;;;;;29.80;40.30;;;;;;5117405;28;925;-45
2022/05/19 09:44:30;;;;;;;;;;;29.80;40.40;;;;;;5117177;28;936;-44
2022/05/19 09:46:57;;;;;;;;;;;29.80;40.40;;;;;;5117105;28;991;-44
2022/05/19 09:49:26;;;;;;;;;;;29.80;41.40;;;;;;5118066;28;924;-45
2022/05/19 09:51:53;;;;;;;;;;;29.90;40.40;;;;;;5116588;28;993;-44
2022/05/19 09:54:22;;;;;;;;;;;29.90;40.40;;;;;;5116426;28;853;-44
2022/05/19 09:56:52;;;;;;;;;;;29.90;40.40;;;;;;5116205;28;988;-44
2022/05/19 09:59:21;;;;;;;;;;;29.90;41.60;;;;;;5116415;28;1984;-44
2022/05/19 10:01:49;;;;;;;;;;;29.90;40.40;;;;;;5117286;28;923;-45
2022/05/19 10:04:18;;;;;;;;;;;29.90;40.40;;;;;;5113879;28;979;-45
2022/05/19 10:06:51;;;;;;;;;;;29.90;40.40;;;;;;5115723;28;892;-45
2022/05/19 10:09:20;;;;;;;;;;;29.90;40.40;;;;;;5115551;28;1954;-44
2022/05/19 10:11:49;;;;;;;;;;;29.90;40.40;;;;;;5115966;28;1839;-45
2022/05/19 10:14:19;;;;;;;;;;;29.90;40.40;;;;;;5116335;28;901;-44
2022/05/19 10:16:52;;;;;;;;;;;29.90;40.40;;;;;;5114997;28;999;-44
2022/05/19 10:19:26;;;;;;;;;;;29.90;40.40;;;;;;5114971;28;1983;-45
2022/05/19 10:22:02;;;;;;;;;;;29.90;40.40;;;;;;5115660;28;998;-45
2022/05/19 10:24:38;;;;;;;;;;;29.90;40.40;;;;;;5116333;28;1031;-45
2022/05/19 10:32:52;;;;;;;;;;;30.00;40.40;;;;;;5116755;28;997;-45
2022/05/19 10:35:25;;;;;;;;;;;30.00;40.30;;;;;;5115444;28;932;-44
2022/05/19 10:37:59;;;;;;;;;;;30.00;40.30;;;;;;5116562;28;1003;-44
2022/05/19 10:40:33;;;;;;;;;;;30.00;40.40;;;;;;5116510;28;1910;-44
2022/05/19 10:43:05;;;;;;;;;;;30.00;40.30;;;;;;5115363;28;1019;-44
2022/05/19 10:45:34;;;;;;;;;;;30.00;40.30;;;;;;5115506;28;975;-44
2022/05/19 10:48:10;;;;;;;;;;;30.10;40.30;;;;;;5115352;28;976;-44
2022/05/19 10:50:38;;;;;;;;;;;30.10;40.20;;;;;;5114687;28;949;-44
2022/05/19 10:53:14;;;;;;;;;;;30.10;40.20;;;;;;5113619;28;956;-44
2022/05/19 10:55:50;;;;;;;;;;;30.10;40.30;;;;;;5113141;28;1140;-41
2022/05/19 10:58:22;;;;;;;;;;;30.20;40.20;;;;;;5112400;28;1244;-45
2022/05/19 11:00:56;;;;;;;;;;;30.10;40.20;;;;;;5112657;28;1978;-44
2022/05/19 11:03:38;;;;;;;;;;;30.10;40.20;;;;;;5113210;28;944;-44
2022/05/19 11:06:19;;;;;;;;;;;30.10;40.20;;;;;;5113933;28;1015;-44
2022/05/19 11:08:53;;;;;;;;;;;30.20;40.30;;;;;;5115560;28;976;-45
2022/05/19 11:11:24;;;;;;;;;;;30.20;40.10;;;;;;5115092;28;1032;-43
2022/05/19 11:13:57;;;;;;;;;;;30.20;40.30;;;;;;5116280;28;980;-45
2022/05/19 11:16:27;;;;;;;;;;;30.20;40.20;;;;;;5115194;28;945;-44
2022/05/19 11:18:56;;;;;;;;;;;30.20;40.30;;;;;;5115263;28;1902;-44
2022/05/19 11:21:27;;;;;;;;;;;30.20;40.10;;;;;;5114643;28;1079;-44
2022/05/19 11:23:57;;;;;;;;;;;30.20;40.30;;;;;;5114577;28;1723;-44
2022/05/19 11:26:27;;;;;;;;;;;30.20;40.30;;;;;;5115492;28;969;-45
2022/05/19 11:28:58;;;;;;;;;;;30.20;40.30;;;;;;5115261;28;1019;-44
2022/05/19 11:31:31;;;;;;;;;;;30.10;40.30;;;;;;5115921;28;1028;-44
2022/05/19 11:34:00;;;;;;;;;;;30.10;40.30;;;;;;5114704;28;980;-44
2022/05/19 11:36:31;;;;;;;;;;;30.20;40.40;;;;;;5115240;28;974;-43
2022/05/19 11:39:01;;;;;;;;;;;30.20;40.30;;;;;;5114421;28;1979;-45
2022/05/19 11:41:30;;;;;;;;;;;30.20;40.30;;;;;;5113491;28;1152;-44
2022/05/19 11:44:00;;;;;;;;;;;30.20;40.40;;;;;;5113898;28;985;-44
2022/05/19 11:46:32;;;;;;;;;;;30.20;40.40;;;;;;5114708;28;997;-44
2022/05/19 11:57:26;;;;;;;;;;;30.20;40.40;;;;;;5111945;28;888;-45
2022/05/19 11:59:55;;;;;;;;;;;30.20;40.30;;;;;;5112172;28;1918;-45
2022/05/19 12:02:26;;;;;;;;;;;30.20;40.40;;;;;;5095353;28;964;-45
2022/05/19 12:04:58;;;;;;;;;;;30.20;40.40;;;;;;5096167;28;1930;-44
2022/05/19 12:07:35;;;;;;;;;;;30.20;40.30;;;;;;5094415;28;921;-45
2022/05/19 12:10:01;;;;;;;;;;;30.20;40.50;;;;;;5094651;28;1040;-43
2022/05/19 12:12:32;;;;;;;;;;;30.20;40.40;;;;;;5095119;28;949;-45
2022/05/19 12:15:16;;;;;;;;;;;30.20;40.30;;;;;;5093709;28;920;-44
2022/05/19 12:17:45;;;;;;;;;;;30.20;40.30;;;;;;5092686;28;993;-45
2022/05/19 12:20:33;;;;;;;;;;;30.30;40.40;;;;;;5095110;28;1902;-44
2022/05/19 12:23:15;;;;;;;;;;;30.20;40.40;;;;;;5052678;28;1505;-44
2022/05/19 12:25:44;;;;;;;;;;;30.30;40.40;;;;;;5094678;28;1000;-45
2022/05/19 12:28:27;;;;;;;;;;;30.30;40.30;;;;;;5093973;28;1274;-44
2022/05/19 12:33:51;;;;;;;;;;;30.40;40.40;;;;;;5097764;28;1443;-44
2022/05/19 12:36:25;;;;;;;;;;;30.40;40.40;;;;;;5097034;28;1353;-45
2022/05/19 12:38:53;;;;;;;;;;;30.40;40.40;;;;;;5095759;28;1027;-45
2022/05/19 12:41:36;;;;;;;;;;;30.40;40.40;;;;;;5096150;28;996;-45
2022/05/19 12:44:18;;;;;;;;;;;30.40;40.40;;;;;;5094513;28;994;-45
2022/05/19 12:46:46;;;;;;;;;;;30.40;40.40;;;;;;5092834;28;1464;-45
2022/05/19 12:49:19;;;;;;;;;;;30.40;40.40;;;;;;5094661;28;1150;-45
2022/05/19 12:51:48;;;;;;;;;;;30.40;40.40;;;;;;5092812;28;1008;-45
2022/05/19 12:54:15;;;;;;;;;;;30.40;40.40;;;;;;5093766;28;993;-45
2022/05/19 12:57:05;;;;;;;;;;;30.40;40.50;;;;;;5092539;28;961;-44
2022/05/19 12:59:36;;;;;;;;;;;30.40;40.40;;;;;;5076696;28;1977;-44
2022/05/19 13:02:05;;;;;;;;;;;30.40;40.50;;;;;;5093745;28;929;-46
2022/05/19 13:04:37;;;;;;;;;;;30.40;40.40;;;;;;5092613;28;932;-46
2022/05/19 13:07:09;;;;;;;;;;;30.40;40.40;;;;;;5092992;28;982;-44
2022/05/19 13:09:36;;;;;;;;;;;30.40;40.40;;;;;;5093664;28;940;-45
2022/05/19 13:12:05;;;;;;;;;;;30.40;40.40;;;;;;5093673;28;907;-44
2022/05/19 13:14:34;;;;;;;;;;;30.40;40.40;;;;;;5093387;28;941;-44
2022/05/19 13:17:03;;;;;;;;;;;30.40;40.40;;;;;;5092992;28;916;-45
2022/05/19 13:19:31;;;;;;;;;;;30.40;40.40;;;;;;5094119;28;1942;-44
2022/05/19 13:22:02;;;;;;;;;;;30.40;40.40;;;;;;5107012;28;1451;-44
2022/05/19 13:24:30;;;;;;;;;;;30.40;40.40;;;;;;5113001;28;946;-45
2022/05/19 13:32:24;;;;;;;;;;;30.50;40.50;;;;;;5113410;28;891;-44
2022/05/19 13:34:52;;;;;;;;;;;30.40;40.40;;;;;;5114328;28;964;-43
2022/05/19 13:37:30;;;;;;;;;;;30.40;40.50;;;;;;5113170;28;1019;-44
2022/05/19 13:40:12;;;;;;;;;;;30.40;40.60;;;;;;5115100;28;1886;-44
2022/05/19 13:42:39;;;;;;;;;;;30.40;40.60;;;;;;5113549;28;1368;-44
2022/05/19 13:45:06;;;;;;;;;;;30.40;40.70;;;;;;5116858;28;1016;-44
2022/05/19 13:47:34;;;;;;;;;;;30.40;40.70;;;;;;5118476;28;1007;-44
2022/05/19 13:50:04;;;;;;;;;;;30.30;40.60;;;;;;5118151;28;956;-44
2022/05/19 13:52:33;;;;;;;;;;;30.30;40.80;;;;;;5117541;28;1314;-44
2022/05/19 13:54:59;;;;;;;;;;;30.20;40.80;;;;;;5116167;28;984;-44
2022/05/19 13:57:28;;;;;;;;;;;30.30;40.80;;;;;;5118176;28;997;-44
2022/05/19 13:59:56;;;;;;;;;;;30.20;40.80;;;;;;5116852;28;1926;-44
2022/05/19 14:02:27;;;;;;;;;;;30.20;40.80;;;;;;5117861;28;1008;-45
2022/05/19 14:04:54;;;;;;;;;;;30.20;40.90;;;;;;5117929;28;936;-44
2022/05/19 14:07:21;;;;;;;;;;;30.20;40.90;;;;;;5118324;28;1002;-44
2022/05/19 14:09:57;;;;;;;;;;;30.20;41.00;;;;;;5118049;28;999;-44
2022/05/19 14:12:29;;;;;;;;;;;30.20;41.00;;;;;;5117970;28;1043;-44
2022/05/19 14:14:58;;;;;;;;;;;30.20;41.00;;;;;;5117305;28;861;-44
2022/05/19 14:17:26;;;;;;;;;;;30.20;41.10;;;;;;5117168;28;1015;-44
2022/05/19 14:19:55;;;;;;;;;;;30.20;41.00;;;;;;5115917;28;1905;-44
2022/05/19 14:22:22;;;;;;;;;;;30.20;41.10;;;;;;5117970;28;1000;-44
2022/05/19 14:24:50;;;;;;;;;;;30.20;41.00;;;;;;5117522;28;984;-44
2022/05/19 14:27:19;;;;;;;;;;;30.20;40.90;;;;;;5117234;28;1007;-45
2022/05/19 14:29:47;;;;;;;;;;;30.20;41.00;;;;;;5116407;28;923;-44
2022/05/19 14:32:23;;;;;;;;;;;30.20;41.10;;;;;;5117247;28;971;-44
2022/05/19 14:34:51;;;;;;;;;;;30.20;41.20;;;;;;5117077;28;975;-44
2022/05/19 14:37:20;;;;;;;;;;;30.20;41.20;;;;;;5117757;28;1031;-44
2022/05/19 14:39:47;;;;;;;;;;;30.20;41.20;;;;;;5117362;28;1901;-45
2022/05/19 14:45:06;;;;;;;;;;;30.20;41.20;;;;;;5117110;28;929;-44
2022/05/19 14:47:34;;;;;;;;;;;30.20;41.30;;;;;;5117373;28;1007;-45
2022/05/19 14:50:04;;;;;;;;;;;30.20;41.30;;;;;;5116341;28;925;-44
2022/05/19 14:52:32;;;;;;;;;;;30.20;41.40;;;;;;5117104;28;1039;-44
2022/05/19 14:54:59;;;;;;;;;;;30.20;41.40;;;;;;5116143;28;1138;-44
2022/05/19 14:57:28;;;;;;;;;;;30.20;41.50;;;;;;5117275;28;892;-44
2022/05/19 14:59:56;;;;;;;;;;;30.10;41.50;;;;;;5116263;28;1976;-43
2022/05/19 15:02:26;;;;;;;;;;;30.20;41.70;;;;;;5116898;28;996;-44
2022/05/19 15:04:53;;;;;;;;;;;30.10;41.50;;;;;;5117377;28;868;-44
2022/05/19 15:07:24;;;;;;;;;;;30.20;41.70;;;;;;5115775;28;1063;-44
2022/05/19 15:09:51;;;;;;;;;;;30.20;41.70;;;;;;5116683;28;936;-44
2022/05/19 15:12:18;;;;;;;;;;;30.10;41.60;;;;;;5116292;28;1001;-44
2022/05/19 15:14:44;;;;;;;;;;;30.10;41.60;;;;;;5115798;28;897;-44
2022/05/19 15:17:11;;;;;;;;;;;30.10;41.70;;;;;;5115737;28;1014;-44
2022/05/19 15:19:39;;;;;;;;;;;30.10;41.60;;;;;;5115963;28;973;-44
2022/05/19 15:22:06;;;;;;;;;;;30.10;41.60;;;;;;5117689;28;1906;-44